Yuho Maru No.3 — JD2491 — position and weather

sailwx.info

Track history (hours):
 
Tides and Currents Weather Stations Pressure Air Temp Water Temp Dewpoint Dewpoint Depression Visibility Wind Speed Wind Dir Waves Ship Positions

Yuho Maru No.3

Last reported at 2014-Oct-29 07:25 UTC. Time now 2014-Oct-30 12:59 UTC.
Position N 35°11' E 139°46'.

Length 65 m; draft 4.2 m.

Type: Tanker. MMSI: 431000336.

Date/timePositionNaut miles runAvg speedWind from/ knotsBaromVisibWave heightAir tempDewpointWater temp
2014-Oct-29 07:25N 35°11' E 139°46'910.4
2014-Oct-29 06:33N 35°20' E 139°42'10 9.7
2014-Oct-29 05:33N 35°30' E 139°44'2 1.8
2014-Oct-29 04:34N 35°31' E 139°45'0 0.0
2014-Oct-29 03:34N 35°31' E 139°45'0 0.0
2014-Oct-29 02:33N 35°31' E 139°45'0 0.0
2014-Oct-29 01:34N 35°31' E 139°45'0 0.0
2014-Oct-29 00:33N 35°31' E 139°45'0 0.0
2014-Oct-28 23:34N 35°31' E 139°45'3 3.0
2014-Oct-28 22:32N 35°30' E 139°48'5 0.2
2014-Oct-28 00:27N 35°36' E 139°50'2 2.0
2014-Oct-27 23:33N 35°37' E 139°50'2 2.3
2014-Oct-27 22:33N 35°36' E 139°52'0 0.0
2014-Oct-27 08:34N 35°36' E 139°52'0 0.0
2014-Oct-27 05:32N 35°36' E 139°52'0 0.0
2014-Oct-27 03:30N 35°36' E 139°52'8 1.3
2014-Oct-26 21:32N 35°29' E 139°56'0 0.1
2014-Oct-26 20:33N 35°29' E 139°56'0 0.0
2014-Oct-26 19:33N 35°29' E 139°56'0 0.0
2014-Oct-26 18:33N 35°29' E 139°56'0 0.0
2014-Oct-26 17:21N 35°29' E 139°56'0 0.0
2014-Oct-26 16:33N 35°29' E 139°56'0 0.0
2014-Oct-26 07:16N 35°29' E 139°56'4 1.7
2014-Oct-26 04:33N 35°27' E 139°50'1010.5
2014-Oct-26 03:33N 35°18' E 139°45'  
Track history (hours):
 
Tides and Currents Weather Stations Pressure Air Temp Water Temp Dewpoint Dewpoint Depression Visibility Wind Speed Wind Dir Waves Ship Positions

Yuho Maru No.3

Last reported at 2014-Oct-29 07:25 UTC. Time now 2014-Oct-30 12:59 UTC.
Position N 35°11' E 139°46'.

Length 65 m; draft 4.2 m.

Type: Tanker. MMSI: 431000336.

Date/timePositionNaut miles runAvg speedWind from/ knotsBaromVisibWave heightAir tempDewpointWater temp
2014-Oct-29 07:25N 35°11' E 139°46'910.4
2014-Oct-29 06:33N 35°20' E 139°42'10 9.7
2014-Oct-29 05:33N 35°30' E 139°44'2 1.8
2014-Oct-29 04:34N 35°31' E 139°45'0 0.0
2014-Oct-29 03:34N 35°31' E 139°45'0 0.0
2014-Oct-29 02:33N 35°31' E 139°45'0 0.0
2014-Oct-29 01:34N 35°31' E 139°45'0 0.0
2014-Oct-29 00:33N 35°31' E 139°45'0 0.0
2014-Oct-28 23:34N 35°31' E 139°45'3 3.0
2014-Oct-28 22:32N 35°30' E 139°48'5 0.2
2014-Oct-28 00:27N 35°36' E 139°50'2 2.0
2014-Oct-27 23:33N 35°37' E 139°50'2 2.3
2014-Oct-27 22:33N 35°36' E 139°52'0 0.0
2014-Oct-27 08:34N 35°36' E 139°52'0 0.0
2014-Oct-27 05:32N 35°36' E 139°52'0 0.0
2014-Oct-27 03:30N 35°36' E 139°52'8 1.3
2014-Oct-26 21:32N 35°29' E 139°56'0 0.1
2014-Oct-26 20:33N 35°29' E 139°56'0 0.0
2014-Oct-26 19:33N 35°29' E 139°56'0 0.0
2014-Oct-26 18:33N 35°29' E 139°56'0 0.0
2014-Oct-26 17:21N 35°29' E 139°56'0 0.0
2014-Oct-26 16:33N 35°29' E 139°56'0 0.0
2014-Oct-26 07:16N 35°29' E 139°56'4 1.7
2014-Oct-26 04:33N 35°27' E 139°50'1010.5
2014-Oct-26 03:33N 35°18' E 139°45'  

Dump ship's entire track history